Frank, North Carolina
Current Conditions -  °F | °C
As of 1:15 AM on Wednesday 26 Nov 2014 (Local Time) from KTNB Reporting Station
Moderate Rain Moderate Rain  
Wind Chill: 37°   Ceiling: Unl
Heat Index: 37°   Visibility: 4mi
Dew Point: 36°   Wind: 0mph
Humidity: 96%   Direction: NA
Pressure: 30.04"   Gusts: NA
Location:  36.0227°N, 81.9499°W
Report Text: KTNB 260615Z AUTO 00000KT 4SM RA CLR 03/02 A3004 RMK AO2 P0002 T00300024
Loading
Personal Weather Stations






























Interactive Weather Map New forecast layout! Learn more

10-Day Weather Forecast

Advertisements
Track Severe Weather on mobile